Terminal Aerodrome Forecast
Issued by NWS

Current Version | Previous Version | Text Only | Print | Product List | Glossary Off
Versions: 1 2 3 4 5 6 7 8 9 10 11 12 13 14

530
FTUS41 KILN 191120
TAFLCK
TAF
KLCK 191120Z 1912/2012 VRB03KT P6SM VCSH BKN080
     FM191500 23006KT P6SM BKN080
     FM191700 25008KT P6SM VCTS SCT045CB
      TEMPO 1918/1920 4SM -SHRA BKN035
     FM192100 29008KT P6SM VCSH SCT045
     FM192200 30007KT P6SM SCT045
     FM201000 VRB03KT 4SM BR FEW250=

USA.gov is the U.S. government's official web portal to all federal, state and local government web resources and services.